Time;durP1;ratioP1;P1;durP2;ratioP2;P2;SDS_P1;SDS_P2;PMS_P1;PMS_P2;Temp;Humidity;BMP_temperature;BMP_pressure;BME280_temperature;BME280_humidity;BME280_pressure;Samples;Min_cycle;Max_cycle;Signal;HPM_P1;HPM_P2
2023/04/05 00:02:39;;;;;;;4.25;3.53;;;;;;;;;;5135052;27;20027;-71
2023/04/05 00:05:29;;;;;;;4.05;3.00;;;;;;;;;;5135993;27;20042;-71
2023/04/05 00:08:22;;;;;;;4.88;3.20;;;;;;;;;;5135077;27;20486;-72
2023/04/05 00:11:08;;;;;;;4.47;3.40;;;;;;;;;;5135845;27;20011;-71
2023/04/05 00:13:54;;;;;;;3.47;2.70;;;;;;;;;;5135626;27;20023;-72
2023/04/05 00:16:40;;;;;;;3.53;2.70;;;;;;;;;;5135711;27;20023;-71
2023/04/05 00:19:26;;;;;;;3.55;2.60;;;;;;;;;;5120739;27;20027;-71
2023/04/05 00:22:11;;;;;;;4.68;2.80;;;;;;;;;;5135206;27;20362;-71
2023/04/05 00:24:57;;;;;;;5.13;3.63;;;;;;;;;;5120773;27;20384;-72
2023/04/05 00:27:43;;;;;;;5.63;3.40;;;;;;;;;;5120712;27;20046;-72
2023/04/05 00:30:28;;;;;;;5.25;3.58;;;;;;;;;;5133982;27;20023;-71
2023/04/05 00:33:14;;;;;;;4.93;2.10;;;;;;;;;;5134135;27;20106;-72
2023/04/05 00:36:12;;;;;;;12.70;7.60;;;;;;;;;;5135247;27;20019;-72
2023/04/05 00:38:58;;;;;;;6.10;3.47;;;;;;;;;;5134448;27;20057;-71
2023/04/05 00:41:44;;;;;;;3.00;2.28;;;;;;;;;;5134304;27;20034;-72
2023/04/05 00:44:33;;;;;;;2.42;1.70;;;;;;;;;;5135784;27;20023;-71
2023/04/05 00:47:19;;;;;;;1.92;1.50;;;;;;;;;;5134184;27;20023;-71
2023/04/05 00:50:05;;;;;;;1.67;1.40;;;;;;;;;;5134842;27;20049;-70
2023/04/05 00:52:51;;;;;;;1.70;1.38;;;;;;;;;;5119979;27;20099;-72
2023/04/05 00:55:36;;;;;;;1.50;1.33;;;;;;;;;;5135684;27;20061;-71
2023/04/05 00:58:22;;;;;;;1.48;1.30;;;;;;;;;;5120204;27;20027;-72
2023/04/05 01:01:18;;;;;;;1.27;0.90;;;;;;;;;;5119492;27;20398;-71
2023/04/05 01:04:05;;;;;;;1.40;1.20;;;;;;;;;;5133424;27;20418;-71
2023/04/05 01:07:05;;;;;;;1.65;1.00;;;;;;;;;;5120340;27;20034;-70
2023/04/05 01:09:51;;;;;;;1.17;1.05;;;;;;;;;;5134255;27;20015;-71
2023/04/05 01:12:37;;;;;;;1.27;1.17;;;;;;;;;;5120216;27;20140;-71
2023/04/05 01:15:23;;;;;;;1.40;1.30;;;;;;;;;;5142766;27;20012;-71
2023/04/05 01:18:10;;;;;;;1.38;1.27;;;;;;;;;;5149094;27;20007;-72
2023/04/05 01:21:28;;;;;;;1.40;1.10;;;;;;;;;;5120526;28;20019;-72
2023/04/05 01:24:37;;;;;;;1.98;1.40;;;;;;;;;;5119231;28;20024;-75
2023/04/05 01:27:56;;;;;;;1.88;1.20;;;;;;;;;;5133822;28;20107;-75
2023/04/05 01:30:43;;;;;;;1.23;1.10;;;;;;;;;;5079953;28;20027;-74
2023/04/05 01:33:33;;;;;;;1.08;0.98;;;;;;;;;;5119881;28;20344;-74
2023/04/05 01:36:19;;;;;;;1.30;1.13;;;;;;;;;;5131959;28;20043;-74
2023/04/05 01:39:07;;;;;;;2.10;1.60;;;;;;;;;;5120041;28;20470;-72
2023/04/05 01:41:57;;;;;;;3.10;2.67;;;;;;;;;;5136869;27;20027;-72
2023/04/05 01:44:42;;;;;;;4.60;3.00;;;;;;;;;;5124304;27;20046;-73
2023/04/05 01:47:28;;;;;;;3.92;3.03;;;;;;;;;;5138199;27;20088;-74
2023/04/05 01:50:14;;;;;;;3.58;2.90;;;;;;;;;;5138586;27;20019;-73
2023/04/05 01:53:00;;;;;;;3.55;2.95;;;;;;;;;;5138035;27;20072;-72
2023/04/05 01:55:45;;;;;;;3.80;2.50;;;;;;;;;;5139553;27;20086;-73
2023/04/05 01:58:31;;;;;;;3.15;2.40;;;;;;;;;;5137829;27;20030;-72
2023/04/05 02:01:16;;;;;;;3.58;2.83;;;;;;;;;;5138627;27;20027;-72
2023/04/05 02:04:02;;;;;;;3.65;2.60;;;;;;;;;;5137622;27;20015;-72
2023/04/05 02:06:47;;;;;;;3.15;2.63;;;;;;;;;;5122592;27;20019;-72
2023/04/05 02:09:33;;;;;;;3.33;2.50;;;;;;;;;;5123000;27;20057;-72
2023/04/05 02:12:19;;;;;;;4.18;3.00;;;;;;;;;;5136849;27;20030;-71
2023/04/05 02:15:05;;;;;;;2.28;1.63;;;;;;;;;;5138095;27;20019;-72
2023/04/05 02:17:52;;;;;;;2.25;1.65;;;;;;;;;;5137571;27;20435;-72
2023/04/05 02:20:38;;;;;;;1.25;1.15;;;;;;;;;;5123746;27;20473;-72
2023/04/05 02:23:23;;;;;;;1.08;0.98;;;;;;;;;;5137307;27;20473;-72
2023/04/05 02:26:09;;;;;;;1.50;1.20;;;;;;;;;;5138075;27;20030;-72
2023/04/05 02:28:55;;;;;;;1.23;1.05;;;;;;;;;;5137704;27;20027;-72
2023/04/05 02:31:40;;;;;;;1.25;1.15;;;;;;;;;;5138033;27;20034;-73
2023/04/05 02:34:26;;;;;;;1.30;1.20;;;;;;;;;;5136503;27;20011;-72
2023/04/05 02:37:12;;;;;;;1.77;1.40;;;;;;;;;;5136760;27;20019;-73
2023/04/05 02:39:57;;;;;;;2.35;1.90;;;;;;;;;;5137614;27;20023;-74
2023/04/05 02:42:43;;;;;;;3.60;2.80;;;;;;;;;;5137286;27;20179;-74
2023/04/05 02:45:28;;;;;;;5.70;3.75;;;;;;;;;;5137317;27;20079;-72
2023/04/05 02:48:14;;;;;;;9.15;5.85;;;;;;;;;;5137659;27;20015;-72
2023/04/05 02:50:59;;;;;;;21.92;12.07;;;;;;;;;;5122235;27;20045;-73
2023/04/05 02:53:46;;;;;;;28.45;15.65;;;;;;;;;;5136135;27;20023;-73
2023/04/05 02:56:32;;;;;;;32.90;18.83;;;;;;;;;;5137247;27;20031;-72
2023/04/05 02:59:19;;;;;;;31.65;18.75;;;;;;;;;;5122429;27;20046;-74
2023/04/05 03:02:05;;;;;;;30.58;19.15;;;;;;;;;;5122157;27;20462;-72
2023/04/05 03:04:52;;;;;;;32.28;19.40;;;;;;;;;;5137294;27;20088;-73
2023/04/05 03:07:41;;;;;;;34.30;20.00;;;;;;;;;;5122661;27;20058;-72
2023/04/05 03:10:31;;;;;;;34.40;19.73;;;;;;;;;;5137035;27;20019;-71
2023/04/05 03:13:17;;;;;;;34.08;20.52;;;;;;;;;;5137940;27;20038;-72
2023/04/05 03:16:03;;;;;;;37.17;22.08;;;;;;;;;;5138651;27;20011;-72
2023/04/05 03:18:48;;;;;;;34.67;20.92;;;;;;;;;;5136535;27;20490;-71
2023/04/05 03:21:34;;;;;;;40.88;23.15;;;;;;;;;;5136554;27;20324;-73
2023/04/05 03:24:20;;;;;;;35.92;22.58;;;;;;;;;;5135483;27;20435;-73
2023/04/05 03:27:06;;;;;;;35.83;21.83;;;;;;;;;;5136281;27;20023;-72
2023/04/05 03:29:51;;;;;;;39.03;22.05;;;;;;;;;;5136256;27;20023;-73
2023/04/05 03:32:37;;;;;;;35.63;21.77;;;;;;;;;;5136202;27;20022;-73
2023/04/05 03:35:22;;;;;;;37.90;21.33;;;;;;;;;;5136423;27;20103;-74
2023/04/05 03:38:08;;;;;;;37.30;22.33;;;;;;;;;;5122072;27;20041;-73
2023/04/05 03:40:54;;;;;;;37.40;21.25;;;;;;;;;;5135872;27;20083;-74
2023/04/05 03:43:39;;;;;;;38.42;22.70;;;;;;;;;;5136088;27;20454;-73
2023/04/05 03:46:25;;;;;;;37.40;21.90;;;;;;;;;;5121199;27;20027;-73
2023/04/05 03:49:10;;;;;;;38.28;21.98;;;;;;;;;;5134983;27;20102;-72
2023/04/05 03:51:56;;;;;;;39.05;22.45;;;;;;;;;;5136102;27;20019;-72
2023/04/05 03:54:42;;;;;;;37.20;21.70;;;;;;;;;;5147885;27;20019;-71
2023/04/05 03:57:28;;;;;;;35.97;21.65;;;;;;;;;;5147011;27;20043;-74
2023/04/05 04:00:14;;;;;;;35.33;21.70;;;;;;;;;;5137051;27;20050;-73
2023/04/05 04:02:59;;;;;;;35.50;21.52;;;;;;;;;;5135822;27;20011;-73
2023/04/05 04:05:45;;;;;;;33.53;21.27;;;;;;;;;;5136121;27;20023;-72
2023/04/05 04:08:31;;;;;;;35.72;20.45;;;;;;;;;;5121185;27;20047;-72
2023/04/05 04:11:16;;;;;;;35.92;21.60;;;;;;;;;;5121779;27;20026;-71
2023/04/05 04:14:02;;;;;;;35.30;21.00;;;;;;;;;;5139051;27;20018;-72
2023/04/05 04:16:47;;;;;;;34.63;20.73;;;;;;;;;;5147697;27;20025;-72
2023/04/05 04:19:33;;;;;;;35.28;21.08;;;;;;;;;;5137158;27;20026;-72
2023/04/05 04:22:19;;;;;;;37.83;22.00;;;;;;;;;;5134658;27;20023;-74
2023/04/05 04:25:09;;;;;;;35.92;21.80;;;;;;;;;;5135958;27;20423;-71
2023/04/05 04:27:55;;;;;;;39.47;21.65;;;;;;;;;;5134296;27;20041;-74
2023/04/05 04:30:42;;;;;;;36.63;20.88;;;;;;;;;;5121612;27;20023;-71
2023/04/05 04:33:27;;;;;;;40.38;22.92;;;;;;;;;;5119864;27;20015;-71
2023/04/05 04:36:13;;;;;;;37.53;21.85;;;;;;;;;;5120387;27;20019;-71
2023/04/05 04:39:01;;;;;;;34.92;21.13;;;;;;;;;;5135213;27;20023;-71
2023/04/05 04:41:47;;;;;;;33.42;20.70;;;;;;;;;;5119567;27;20023;-72
2023/04/05 04:44:33;;;;;;;34.50;20.92;;;;;;;;;;5120416;27;20035;-72
2023/04/05 04:47:20;;;;;;;31.00;18.45;;;;;;;;;;5133719;27;20020;-72
2023/04/05 04:50:06;;;;;;;30.13;18.85;;;;;;;;;;5135031;27;20076;-72
2023/04/05 04:52:52;;;;;;;29.88;17.77;;;;;;;;;;5134767;27;20011;-71
2023/04/05 04:55:41;;;;;;;32.08;18.13;;;;;;;;;;5134346;27;20442;-71
2023/04/05 04:58:26;;;;;;;31.15;18.23;;;;;;;;;;5119355;27;20043;-71
2023/04/05 05:01:12;;;;;;;28.38;17.83;;;;;;;;;;5135658;27;20027;-70
2023/04/05 05:03:57;;;;;;;27.95;16.70;;;;;;;;;;5119887;27;20373;-71
2023/04/05 05:06:43;;;;;;;26.25;16.00;;;;;;;;;;5134635;27;20401;-71
2023/04/05 05:09:28;;;;;;;28.52;16.45;;;;;;;;;;5119944;27;20419;-71
2023/04/05 05:12:14;;;;;;;23.52;15.45;;;;;;;;;;5119575;27;20026;-73
2023/04/05 05:15:00;;;;;;;23.60;14.38;;;;;;;;;;5134210;27;20342;-72
2023/04/05 05:17:46;;;;;;;23.58;14.80;;;;;;;;;;5119960;27;20079;-70
2023/04/05 05:20:31;;;;;;;23.77;14.77;;;;;;;;;;5119549;27;20087;-72
2023/04/05 05:23:17;;;;;;;21.15;13.38;;;;;;;;;;5119657;28;20022;-71
2023/04/05 05:26:03;;;;;;;21.75;13.65;;;;;;;;;;5134555;28;20023;-70
2023/04/05 05:28:49;;;;;;;22.55;13.85;;;;;;;;;;5119990;28;20123;-73
2023/04/05 05:31:35;;;;;;;21.58;12.63;;;;;;;;;;5119939;28;20046;-74
2023/04/05 05:34:20;;;;;;;20.92;13.15;;;;;;;;;;5134671;28;20120;-75
2023/04/05 05:37:08;;;;;;;22.15;13.65;;;;;;;;;;5135053;28;20027;-73
2023/04/05 05:39:53;;;;;;;20.13;12.43;;;;;;;;;;5135338;28;20038;-73
2023/04/05 05:46:23;;;;;;;18.70;11.85;;;;;;;;;;5135096;28;20384;-72
2023/04/05 05:49:15;;;;;;;16.75;10.98;;;;;;;;;;5122703;28;20015;-74
2023/04/05 05:52:02;;;;;;;17.92;11.50;;;;;;;;;;5135901;28;20016;-73
2023/04/05 05:54:51;;;;;;;19.15;11.60;;;;;;;;;;5134703;28;20019;-72
2023/04/05 05:58:06;;;;;;;16.58;10.85;;;;;;;;;;5134395;28;20019;-74
2023/04/05 06:00:55;;;;;;;17.10;10.80;;;;;;;;;;5113115;28;20328;-74
2023/04/05 06:03:41;;;;;;;18.95;10.95;;;;;;;;;;5119093;28;20439;-74
2023/04/05 06:06:42;;;;;;;17.50;11.52;;;;;;;;;;5134604;28;20426;-72
2023/04/05 06:09:34;;;;;;;16.77;10.45;;;;;;;;;;5134806;28;20567;-74
2023/04/05 06:12:21;;;;;;;14.73;9.60;;;;;;;;;;5119122;28;20020;-73
2023/04/05 06:15:43;;;;;;;15.70;10.05;;;;;;;;;;5119491;28;20126;-74
2023/04/05 06:18:32;;;;;;;14.77;9.70;;;;;;;;;;5134242;28;20026;-73
2023/04/05 06:21:30;;;;;;;13.80;8.85;;;;;;;;;;5121403;28;20141;-72
2023/04/05 06:27:25;;;;;;;15.82;9.82;;;;;;;;;;5135718;27;20016;-72
2023/04/05 06:30:12;;;;;;;14.57;9.80;;;;;;;;;;5139746;27;20034;-74
2023/04/05 06:32:57;;;;;;;12.98;7.90;;;;;;;;;;5143373;27;20011;-74
2023/04/05 06:35:43;;;;;;;12.30;8.40;;;;;;;;;;5137323;27;20503;-73
2023/04/05 06:38:28;;;;;;;16.45;8.30;;;;;;;;;;5138640;27;20023;-72
2023/04/05 06:41:14;;;;;;;12.85;7.93;;;;;;;;;;5137187;27;20019;-73
2023/04/05 06:44:00;;;;;;;13.00;8.13;;;;;;;;;;5137823;27;20030;-72
2023/04/05 06:46:45;;;;;;;10.15;7.13;;;;;;;;;;5122961;27;20115;-72
2023/04/05 06:49:31;;;;;;;10.75;7.35;;;;;;;;;;5123290;27;20069;-74
2023/04/05 06:52:17;;;;;;;10.93;7.72;;;;;;;;;;5140114;27;20015;-72
2023/04/05 06:55:03;;;;;;;14.65;7.38;;;;;;;;;;5150058;27;20090;-73
2023/04/05 06:57:49;;;;;;;9.65;6.50;;;;;;;;;;5137498;27;20019;-73
2023/04/05 07:00:35;;;;;;;10.52;7.00;;;;;;;;;;5136957;27;20023;-73
2023/04/05 07:03:21;;;;;;;9.93;6.05;;;;;;;;;;5137120;27;20054;-73
2023/04/05 07:06:09;;;;;;;9.40;6.30;;;;;;;;;;5137266;27;20355;-72
2023/04/05 07:08:54;;;;;;;8.73;6.40;;;;;;;;;;5121666;27;20130;-73
2023/04/05 07:11:40;;;;;;;9.00;6.40;;;;;;;;;;5136581;27;20030;-72
2023/04/05 07:14:28;;;;;;;9.45;6.35;;;;;;;;;;5136582;27;20032;-73
2023/04/05 07:17:35;;;;;;;8.13;6.00;;;;;;;;;;5136177;27;20340;-73
2023/04/05 07:20:20;;;;;;;9.02;6.03;;;;;;;;;;5137702;27;20023;-74
2023/04/05 07:23:06;;;;;;;8.73;6.28;;;;;;;;;;5121970;27;20027;-74
2023/04/05 07:25:52;;;;;;;8.05;5.85;;;;;;;;;;5122069;27;20114;-73
2023/04/05 07:28:38;;;;;;;9.50;5.85;;;;;;;;;;5136711;27;20027;-74
2023/04/05 07:31:23;;;;;;;8.73;5.85;;;;;;;;;;5137635;27;20050;-73
2023/04/05 07:34:09;;;;;;;8.10;5.90;;;;;;;;;;5136404;27;20443;-74
2023/04/05 07:36:54;;;;;;;9.23;5.97;;;;;;;;;;5137145;27;20037;-73
2023/04/05 07:39:40;;;;;;;9.70;5.85;;;;;;;;;;5135719;27;20443;-74
2023/04/05 07:42:26;;;;;;;7.95;6.20;;;;;;;;;;5121147;27;20168;-72
2023/04/05 07:45:12;;;;;;;7.60;5.85;;;;;;;;;;5135701;27;20030;-72
2023/04/05 07:47:58;;;;;;;7.47;5.40;;;;;;;;;;5136171;27;20034;-73
2023/04/05 07:50:46;;;;;;;7.18;5.35;;;;;;;;;;5135471;27;20035;-72
2023/04/05 07:53:32;;;;;;;6.90;5.45;;;;;;;;;;5135344;27;20427;-73
2023/04/05 07:56:17;;;;;;;7.22;5.40;;;;;;;;;;5120947;27;20037;-72
2023/04/05 07:59:03;;;;;;;6.40;5.38;;;;;;;;;;5135389;27;20063;-73
2023/04/05 08:01:49;;;;;;;7.05;5.78;;;;;;;;;;5136390;27;20011;-73
2023/04/05 08:04:34;;;;;;;8.20;5.65;;;;;;;;;;5140770;27;20043;-72
2023/04/05 08:07:21;;;;;;;7.15;5.00;;;;;;;;;;5120633;27;20100;-75
2023/04/05 08:10:07;;;;;;;8.25;5.45;;;;;;;;;;5135365;27;20051;-73
2023/04/05 08:12:53;;;;;;;7.10;4.68;;;;;;;;;;5135334;27;20103;-73
2023/04/05 08:15:39;;;;;;;5.70;4.78;;;;;;;;;;5136267;27;20019;-73
2023/04/05 08:18:24;;;;;;;11.13;4.80;;;;;;;;;;5135198;27;20025;-74
2023/04/05 08:21:10;;;;;;;7.35;5.28;;;;;;;;;;5135052;27;20019;-73
2023/04/05 08:23:57;;;;;;;5.80;4.90;;;;;;;;;;5135016;27;20023;-72
2023/04/05 08:26:42;;;;;;;6.28;4.80;;;;;;;;;;5121273;27;20073;-73
2023/04/05 08:29:28;;;;;;;7.15;4.65;;;;;;;;;;5121451;27;20114;-74
2023/04/05 08:32:14;;;;;;;6.40;4.43;;;;;;;;;;5121175;27;20375;-73
2023/04/05 08:34:59;;;;;;;6.55;5.00;;;;;;;;;;5134971;27;20023;-73
2023/04/05 08:37:47;;;;;;;7.35;4.70;;;;;;;;;;5120572;27;20015;-74
2023/04/05 08:40:35;;;;;;;8.52;5.35;;;;;;;;;;5134920;27;20027;-73
2023/04/05 08:43:32;;;;;;;6.15;5.07;;;;;;;;;;5136233;27;20114;-73
2023/04/05 08:46:19;;;;;;;6.68;5.57;;;;;;;;;;5119599;27;20332;-73
2023/04/05 08:49:06;;;;;;;6.53;5.20;;;;;;;;;;5134823;27;20026;-74
2023/04/05 08:51:52;;;;;;;6.75;5.53;;;;;;;;;;5119281;27;20015;-73
2023/04/05 08:54:38;;;;;;;7.82;6.10;;;;;;;;;;5121760;27;20011;-73
2023/04/05 08:57:25;;;;;;;8.82;5.93;;;;;;;;;;5119992;27;20019;-73
2023/04/05 09:00:11;;;;;;;7.50;5.38;;;;;;;;;;5120033;27;20034;-76
2023/04/05 09:02:58;;;;;;;7.03;5.45;;;;;;;;;;5135213;27;20070;-74
2023/04/05 09:05:45;;;;;;;8.75;5.70;;;;;;;;;;5143604;27;20015;-73
2023/04/05 09:08:30;;;;;;;6.88;5.47;;;;;;;;;;5142527;27;20103;-72
2023/04/05 09:11:17;;;;;;;7.82;5.72;;;;;;;;;;5140844;27;20043;-74
2023/04/05 09:14:06;;;;;;;6.50;5.72;;;;;;;;;;5120133;28;20041;-73
2023/04/05 09:16:52;;;;;;;9.00;5.78;;;;;;;;;;5135239;27;20048;-74
2023/04/05 09:19:38;;;;;;;6.88;5.20;;;;;;;;;;5119674;27;20022;-73
2023/04/05 09:22:23;;;;;;;8.02;6.22;;;;;;;;;;5120209;28;20039;-74
2023/04/05 09:25:09;;;;;;;7.45;5.60;;;;;;;;;;5119709;28;20056;-75
2023/04/05 09:27:55;;;;;;;7.22;5.43;;;;;;;;;;5137335;28;20123;-73
2023/04/05 09:30:44;;;;;;;6.45;5.35;;;;;;;;;;5122269;28;20500;-73
2023/04/05 09:33:30;;;;;;;6.32;5.10;;;;;;;;;;5139163;28;20034;-72
2023/04/05 09:36:17;;;;;;;6.22;5.18;;;;;;;;;;5135382;28;20021;-75
2023/04/05 09:39:07;;;;;;;7.20;5.03;;;;;;;;;;5120422;28;20019;-73
2023/04/05 09:42:05;;;;;;;5.90;4.80;;;;;;;;;;5119616;28;20034;-73
2023/04/05 09:45:04;;;;;;;6.80;5.40;;;;;;;;;;5120363;28;20374;-73
2023/04/05 09:47:58;;;;;;;5.78;4.82;;;;;;;;;;5122401;28;20055;-74
2023/04/05 09:50:44;;;;;;;5.50;4.78;;;;;;;;;;5135363;28;20020;-73
2023/04/05 09:53:30;;;;;;;8.20;5.25;;;;;;;;;;5142824;28;20027;-74
2023/04/05 09:56:15;;;;;;;6.57;5.75;;;;;;;;;;5135190;28;20019;-73
2023/04/05 09:59:05;;;;;;;6.40;5.32;;;;;;;;;;5135059;28;20432;-73
2023/04/05 10:01:50;;;;;;;10.00;4.95;;;;;;;;;;5135627;27;20019;-73
2023/04/05 10:04:44;;;;;;;6.55;5.35;;;;;;;;;;5138266;27;20139;-73
2023/04/05 10:07:30;;;;;;;7.25;5.15;;;;;;;;;;5138704;27;20043;-74
2023/04/05 10:10:16;;;;;;;8.30;6.10;;;;;;;;;;5137955;27;20031;-73
2023/04/05 10:13:04;;;;;;;6.88;5.18;;;;;;;;;;5137340;27;20042;-73
2023/04/05 10:15:53;;;;;;;7.22;5.50;;;;;;;;;;5123549;27;20027;-73
2023/04/05 10:18:45;;;;;;;7.35;4.80;;;;;;;;;;5108745;27;20007;-74
2023/04/05 10:21:34;;;;;;;7.43;5.10;;;;;;;;;;5137853;27;20023;-73
2023/04/05 10:24:26;;;;;;;10.60;5.00;;;;;;;;;;5122727;27;20073;-73
2023/04/05 10:27:18;;;;;;;7.40;5.60;;;;;;;;;;5138494;27;20335;-75
2023/04/05 10:30:07;;;;;;;10.68;5.47;;;;;;;;;;5137415;27;20030;-74
2023/04/05 10:33:02;;;;;;;8.02;5.10;;;;;;;;;;5137113;27;20102;-74
2023/04/05 10:35:54;;;;;;;5.40;4.80;;;;;;;;;;5138223;27;20431;-75
2023/04/05 10:38:57;;;;;;;6.22;5.47;;;;;;;;;;5137842;27;20042;-73
2023/04/05 10:41:46;;;;;;;7.10;5.88;;;;;;;;;;5122138;27;20024;-73
2023/04/05 10:44:34;;;;;;;7.13;5.65;;;;;;;;;;5138321;27;20029;-73
2023/04/05 10:47:22;;;;;;;7.05;5.45;;;;;;;;;;5122722;27;20453;-73
2023/04/05 10:50:08;;;;;;;6.85;5.40;;;;;;;;;;5122021;27;20027;-73
2023/04/05 10:52:55;;;;;;;9.23;5.72;;;;;;;;;;5122594;27;20079;-73
2023/04/05 10:55:42;;;;;;;6.88;5.75;;;;;;;;;;5138469;27;20022;-73
2023/04/05 10:58:29;;;;;;;7.43;5.60;;;;;;;;;;5137273;27;20015;-73
2023/04/05 11:01:16;;;;;;;5.93;5.10;;;;;;;;;;5136296;27;20047;-73
2023/04/05 11:04:14;;;;;;;7.75;5.53;;;;;;;;;;5136519;27;20451;-73
2023/04/05 11:07:09;;;;;;;8.15;5.70;;;;;;;;;;5122785;27;20380;-75
2023/04/05 11:09:59;;;;;;;6.53;5.47;;;;;;;;;;5137255;27;20111;-74
2023/04/05 11:12:44;;;;;;;7.93;6.00;;;;;;;;;;5137098;27;20362;-72
2023/04/05 11:15:31;;;;;;;6.85;5.88;;;;;;;;;;5137603;27;20033;-72
2023/04/05 11:18:17;;;;;;;9.05;6.22;;;;;;;;;;5137913;27;20016;-74
2023/04/05 11:21:06;;;;;;;7.63;6.20;;;;;;;;;;5137274;27;20022;-74
2023/04/05 11:24:05;;;;;;;6.55;5.82;;;;;;;;;;5135665;27;20213;-73
2023/04/05 11:26:51;;;;;;;9.10;5.75;;;;;;;;;;5136752;27;20023;-73
2023/04/05 11:29:53;;;;;;;11.43;6.30;;;;;;;;;;5137491;27;20023;-74
2023/04/05 11:32:43;;;;;;;9.90;6.03;;;;;;;;;;5137850;27;20054;-74
2023/04/05 11:35:33;;;;;;;6.57;5.88;;;;;;;;;;5135624;27;20450;-74
2023/04/05 11:38:21;;;;;;;7.65;5.85;;;;;;;;;;5136580;27;20011;-73
2023/04/05 11:41:16;;;;;;;7.15;5.65;;;;;;;;;;5121794;27;20015;-74
2023/04/05 11:44:04;;;;;;;8.95;6.35;;;;;;;;;;5135508;27;20370;-75
2023/04/05 11:46:50;;;;;;;8.25;6.05;;;;;;;;;;5136132;27;20023;-74
2023/04/05 11:49:37;;;;;;;6.35;5.75;;;;;;;;;;5135715;27;20023;-74
2023/04/05 11:52:23;;;;;;;7.80;5.65;;;;;;;;;;5136315;27;21565;-74
2023/04/05 11:55:10;;;;;;;7.07;5.97;;;;;;;;;;5135322;27;20026;-75
2023/04/05 11:57:56;;;;;;;7.60;6.22;;;;;;;;;;5136391;27;20346;-73
2023/04/05 12:00:42;;;;;;;6.63;5.85;;;;;;;;;;5121396;27;20023;-72
2023/04/05 12:03:28;;;;;;;7.93;6.40;;;;;;;;;;5116013;27;20026;-73
2023/04/05 12:06:14;;;;;;;7.22;6.43;;;;;;;;;;5115478;28;20023;-73
2023/04/05 12:08:59;;;;;;;8.32;6.38;;;;;;;;;;5113814;28;20086;-72
2023/04/05 12:11:45;;;;;;;10.93;6.80;;;;;;;;;;5115828;28;20035;-74
2023/04/05 12:14:31;;;;;;;7.20;6.00;;;;;;;;;;5116022;28;20024;-74
2023/04/05 12:17:17;;;;;;;7.25;6.22;;;;;;;;;;5114631;28;20023;-73
2023/04/05 12:20:02;;;;;;;7.45;6.25;;;;;;;;;;5114601;28;20031;-74
2023/04/05 12:22:48;;;;;;;10.15;6.75;;;;;;;;;;5115170;28;20019;-74
2023/04/05 12:25:37;;;;;;;8.85;6.78;;;;;;;;;;5107759;28;20035;-74
2023/04/05 12:28:23;;;;;;;8.98;6.68;;;;;;;;;;5114596;28;20020;-74
2023/04/05 12:31:09;;;;;;;7.22;6.47;;;;;;;;;;5114278;28;20112;-74
2023/04/05 12:33:57;;;;;;;8.50;6.57;;;;;;;;;;5110465;28;20024;-75
2023/04/05 12:36:44;;;;;;;9.40;6.70;;;;;;;;;;5110568;28;20026;-72
2023/04/05 12:39:32;;;;;;;7.28;6.18;;;;;;;;;;5113408;28;20023;-74
2023/04/05 12:42:17;;;;;;;8.25;6.20;;;;;;;;;;5114218;28;20431;-73
2023/04/05 12:45:04;;;;;;;11.18;6.57;;;;;;;;;;5114836;28;20028;-74
2023/04/05 12:47:59;;;;;;;7.93;6.45;;;;;;;;;;5115009;28;20020;-73
2023/04/05 12:50:45;;;;;;;9.35;6.75;;;;;;;;;;5115776;28;20458;-74
2023/04/05 12:53:32;;;;;;;8.23;6.72;;;;;;;;;;5115234;28;20028;-75
2023/04/05 12:56:18;;;;;;;9.80;6.97;;;;;;;;;;5115048;28;20027;-74
2023/04/05 12:59:07;;;;;;;8.00;6.40;;;;;;;;;;5114974;28;20039;-73
2023/04/05 13:01:52;;;;;;;11.57;6.82;;;;;;;;;;5116570;28;20114;-74
2023/04/05 13:04:38;;;;;;;10.63;7.00;;;;;;;;;;5131523;28;20045;-73
2023/04/05 13:07:23;;;;;;;7.95;6.55;;;;;;;;;;5122113;27;20134;-72
2023/04/05 13:10:09;;;;;;;9.15;6.65;;;;;;;;;;5134754;27;20023;-74
2023/04/05 13:12:55;;;;;;;9.00;6.88;;;;;;;;;;5134280;27;20037;-72
2023/04/05 13:15:41;;;;;;;8.73;7.13;;;;;;;;;;5134045;27;20021;-72
2023/04/05 13:18:26;;;;;;;8.55;6.65;;;;;;;;;;5120088;27;20019;-73
2023/04/05 13:21:12;;;;;;;9.30;7.13;;;;;;;;;;5134651;27;20040;-70
2023/04/05 13:23:57;;;;;;;11.70;8.52;;;;;;;;;;5142334;27;20521;-73
2023/04/05 13:26:43;;;;;;;10.38;7.30;;;;;;;;;;5144715;28;20023;-72
2023/04/05 13:29:29;;;;;;;8.85;6.35;;;;;;;;;;5134514;28;20392;-73
2023/04/05 13:32:14;;;;;;;8.38;6.78;;;;;;;;;;5134728;28;20435;-73
2023/04/05 13:35:00;;;;;;;8.32;6.95;;;;;;;;;;5133726;28;20015;-73
2023/04/05 13:37:46;;;;;;;11.70;6.28;;;;;;;;;;5136558;27;20023;-74
2023/04/05 13:40:31;;;;;;;7.53;5.97;;;;;;;;;;5123940;27;20027;-73
2023/04/05 13:43:17;;;;;;;9.48;6.70;;;;;;;;;;5137914;27;20035;-73
2023/04/05 13:46:02;;;;;;;8.88;6.35;;;;;;;;;;5138170;27;20073;-73
2023/04/05 13:48:48;;;;;;;9.10;6.47;;;;;;;;;;5124430;27;20083;-73
2023/04/05 13:51:35;;;;;;;7.88;6.22;;;;;;;;;;5138553;27;20350;-73
2023/04/05 13:54:21;;;;;;;7.18;6.15;;;;;;;;;;5137671;27;20023;-74
2023/04/05 13:57:07;;;;;;;6.65;5.78;;;;;;;;;;5138333;27;20438;-73
2023/04/05 13:59:52;;;;;;;8.32;6.10;;;;;;;;;;5138195;27;20035;-74
2023/04/05 14:02:38;;;;;;;10.57;7.25;;;;;;;;;;5122551;27;20389;-72
2023/04/05 14:05:24;;;;;;;6.97;5.93;;;;;;;;;;5123777;27;20079;-72
2023/04/05 14:08:09;;;;;;;10.82;6.43;;;;;;;;;;5137530;27;20051;-72
2023/04/05 14:10:55;;;;;;;7.55;6.45;;;;;;;;;;5137895;27;20015;-72
2023/04/05 14:13:41;;;;;;;7.30;6.28;;;;;;;;;;5138010;27;20107;-73
2023/04/05 14:16:26;;;;;;;8.48;6.18;;;;;;;;;;5137861;27;20019;-76
2023/04/05 14:19:12;;;;;;;6.88;5.68;;;;;;;;;;5137539;27;20109;-74
2023/04/05 14:21:58;;;;;;;8.57;5.35;;;;;;;;;;5137226;27;20038;-75
2023/04/05 14:24:43;;;;;;;7.95;5.63;;;;;;;;;;5137321;27;20420;-73
2023/04/05 14:27:29;;;;;;;7.95;5.38;;;;;;;;;;5137289;27;20088;-73
2023/04/05 14:30:15;;;;;;;9.55;5.88;;;;;;;;;;5138015;27;20019;-71
2023/04/05 14:33:00;;;;;;;8.73;5.35;;;;;;;;;;5137574;27;20094;-72
2023/04/05 14:35:46;;;;;;;6.43;5.30;;;;;;;;;;5136875;27;20007;-74
2023/04/05 14:38:32;;;;;;;8.50;5.57;;;;;;;;;;5136910;27;20016;-72
2023/04/05 14:41:18;;;;;;;6.70;5.47;;;;;;;;;;5137188;27;20030;-72
2023/04/05 14:44:04;;;;;;;9.23;6.25;;;;;;;;;;5136793;27;20057;-71
2023/04/05 14:46:50;;;;;;;7.00;6.25;;;;;;;;;;5137245;27;20054;-72
2023/04/05 14:49:36;;;;;;;9.05;6.45;;;;;;;;;;5135647;27;20065;-72
2023/04/05 14:52:22;;;;;;;7.75;5.65;;;;;;;;;;5121371;27;20107;-72
2023/04/05 14:55:07;;;;;;;7.90;6.13;;;;;;;;;;5137566;27;20102;-73
2023/04/05 14:57:53;;;;;;;7.38;6.32;;;;;;;;;;5122384;27;20034;-71
2023/04/05 15:00:39;;;;;;;6.85;5.85;;;;;;;;;;5137047;27;20390;-72
2023/04/05 15:03:25;;;;;;;7.97;6.50;;;;;;;;;;5122288;27;20102;-74
2023/04/05 15:06:10;;;;;;;7.40;6.20;;;;;;;;;;5137111;27;20097;-73
2023/04/05 15:08:56;;;;;;;8.50;6.53;;;;;;;;;;5136092;27;20119;-73
2023/04/05 15:11:42;;;;;;;11.52;7.20;;;;;;;;;;5136959;27;20104;-72
2023/04/05 15:14:27;;;;;;;7.93;6.43;;;;;;;;;;5122257;27;20343;-72
2023/04/05 15:17:13;;;;;;;11.18;7.53;;;;;;;;;;5137684;27;20047;-72
2023/04/05 15:19:58;;;;;;;8.43;6.68;;;;;;;;;;5122847;27;20027;-71
2023/04/05 15:22:44;;;;;;;8.68;7.03;;;;;;;;;;5122630;27;20120;-71
2023/04/05 15:25:30;;;;;;;9.85;7.85;;;;;;;;;;5136805;27;20115;-71
2023/04/05 15:28:15;;;;;;;13.13;7.60;;;;;;;;;;5137731;27;20015;-71
2023/04/05 15:31:01;;;;;;;11.38;7.97;;;;;;;;;;5122412;27;20020;-72
2023/04/05 15:33:47;;;;;;;13.88;7.70;;;;;;;;;;5122340;27;20034;-72
2023/04/05 15:36:32;;;;;;;11.48;7.70;;;;;;;;;;5122467;27;20026;-72
2023/04/05 15:39:18;;;;;;;9.65;7.28;;;;;;;;;;5136251;27;20092;-72
2023/04/05 15:42:04;;;;;;;11.30;7.80;;;;;;;;;;5136423;27;20400;-71
2023/04/05 15:44:50;;;;;;;10.13;7.78;;;;;;;;;;5136462;27;20304;-71
2023/04/05 15:47:35;;;;;;;12.50;8.02;;;;;;;;;;5136810;27;20023;-71
2023/04/05 15:50:21;;;;;;;13.63;8.75;;;;;;;;;;5126021;27;20019;-72
2023/04/05 15:53:07;;;;;;;10.55;8.55;;;;;;;;;;5139158;27;20011;-71
2023/04/05 15:55:52;;;;;;;19.90;9.95;;;;;;;;;;5136545;27;20132;-71
2023/04/05 15:58:38;;;;;;;14.07;9.95;;;;;;;;;;5135824;27;20116;-71
2023/04/05 16:01:23;;;;;;;12.85;9.80;;;;;;;;;;5135796;27;20048;-72
2023/04/05 16:04:09;;;;;;;12.68;8.82;;;;;;;;;;5121764;27;20042;-71
2023/04/05 16:06:55;;;;;;;16.30;9.77;;;;;;;;;;5137162;27;20080;-72
2023/04/05 16:09:40;;;;;;;17.95;10.23;;;;;;;;;;5137503;27;20431;-72
2023/04/05 16:12:26;;;;;;;14.40;9.88;;;;;;;;;;5147619;27;20058;-72
2023/04/05 16:15:12;;;;;;;17.17;10.30;;;;;;;;;;5135507;27;20042;-71
2023/04/05 16:17:58;;;;;;;14.15;10.50;;;;;;;;;;5120852;27;20023;-72
2023/04/05 16:20:44;;;;;;;15.23;10.30;;;;;;;;;;5134756;27;20027;-72
2023/04/05 16:23:29;;;;;;;18.25;9.95;;;;;;;;;;5135507;27;20109;-71
2023/04/05 16:26:15;;;;;;;12.30;9.15;;;;;;;;;;5136170;27;20031;-71
2023/04/05 16:29:01;;;;;;;14.02;9.40;;;;;;;;;;5135922;27;20019;-72
2023/04/05 16:31:46;;;;;;;15.60;10.02;;;;;;;;;;5121389;27;20011;-73
2023/04/05 16:34:32;;;;;;;16.13;9.98;;;;;;;;;;5135686;27;20034;-73
2023/04/05 16:37:19;;;;;;;15.52;10.63;;;;;;;;;;5135021;27;20409;-72
2023/04/05 16:40:06;;;;;;;13.05;9.77;;;;;;;;;;5134232;27;20402;-73
2023/04/05 16:42:53;;;;;;;17.15;11.15;;;;;;;;;;5120747;27;20029;-71